createdAt,value
2022-08-05T00:00:26.022Z,67.49
2022-08-05T00:01:27.613Z,67.49
2022-08-05T00:02:24.921Z,67.40
2022-08-05T00:03:24.826Z,67.79
2022-08-05T00:04:24.821Z,67.79
2022-08-05T00:06:02.844Z,67.75
2022-08-05T00:06:32.494Z,67.69
2022-08-05T00:08:00.465Z,67.08
2022-08-05T00:08:34.624Z,68.04
2022-08-05T00:09:24.787Z,67.56
2022-08-05T00:10:27.206Z,68.14
2022-08-05T00:11:34.437Z,68.52
2022-08-05T00:12:24.768Z,68.33
2022-08-05T00:13:38.516Z,67.75
2022-08-05T00:14:26.466Z,67.66
2022-08-05T00:15:55.779Z,68.14
2022-08-05T00:16:36.592Z,68.14
2022-08-05T00:17:25.841Z,68.14
2022-08-05T00:18:24.725Z,68.72
2022-08-05T00:19:33.241Z,68.91
2022-08-05T00:20:29.112Z,68.33
2022-08-05T00:21:25.198Z,68.82
2022-08-05T00:22:24.698Z,68.91
2022-08-05T00:23:31.026Z,68.14
2022-08-05T00:24:30.794Z,68.33
2022-08-05T00:25:24.677Z,68.72
2022-08-05T00:26:24.717Z,68.91
2022-08-05T00:27:35.685Z,68.24
2022-08-05T00:28:29.751Z,68.43
2022-08-05T00:29:25.488Z,69.56
2022-08-05T00:30:29.251Z,69.40
2022-08-05T00:31:53.737Z,69.10
2022-08-05T00:32:25.880Z,69.49
2022-08-05T00:34:53.308Z,70.52
2022-08-05T00:34:56.798Z,71.00
2022-08-05T00:35:24.595Z,71.00
2022-08-05T00:37:10.922Z,71.58
2022-08-05T00:37:24.698Z,71.48
2022-08-05T00:38:28.638Z,71.39
2022-08-05T00:39:24.946Z,71.78
2022-08-05T00:40:26.767Z,72.06
2022-08-05T00:41:24.578Z,71.20
2022-08-05T00:42:31.502Z,71.88
2022-08-05T00:43:24.539Z,71.20
2022-08-05T00:44:30.746Z,71.20
2022-08-05T00:45:28.327Z,71.10
2022-08-05T00:46:42.430Z,70.52
2022-08-05T00:47:24.508Z,71.06
2022-08-05T00:48:31.266Z,71.20
2022-08-05T00:49:24.493Z,70.42
2022-08-05T00:50:25.369Z,70.78
2022-08-05T00:51:50.433Z,71.84
2022-08-05T00:52:28.834Z,71.74
2022-08-05T00:53:45.114Z,71.74
2022-08-05T00:54:27.950Z,72.42
2022-08-05T00:55:42.420Z,73.00
2022-08-05T00:56:24.539Z,73.38
2022-08-05T00:57:24.465Z,73.28
2022-08-05T00:58:27.595Z,73.00
2022-08-05T00:59:24.411Z,73.38
2022-08-05T01:00:26.003Z,73.38
2022-08-05T01:01:42.205Z,73.19
2022-08-05T01:02:24.472Z,73.19
2022-08-05T01:03:24.380Z,74.16
2022-08-05T01:04:26.874Z,72.71
2022-08-05T01:05:24.371Z,72.03
2022-08-05T01:06:26.599Z,72.03
2022-08-05T01:07:31.419Z,71.74
2022-08-05T01:08:30.291Z,71.55
2022-08-05T01:09:24.341Z,72.13
2022-08-05T01:10:25.737Z,72.03
2022-08-05T01:11:33.461Z,71.16
2022-08-05T01:12:24.361Z,71.16
2022-08-05T01:13:27.595Z,71.26
2022-08-05T01:14:27.183Z,71.94
2022-08-05T01:15:35.421Z,71.06
2022-08-05T01:16:26.510Z,71.06
2022-08-05T01:17:24.803Z,71.45
2022-08-05T01:18:24.268Z,71.94
2022-08-05T01:19:36.582Z,71.26
2022-08-05T01:20:24.253Z,71.26
2022-08-05T01:21:24.248Z,71.64
2022-08-05T01:22:27.738Z,71.26
2022-08-05T01:23:24.284Z,71.36
2022-08-05T01:24:24.217Z,71.26
2022-08-05T01:25:24.275Z,71.26
2022-08-05T01:26:26.408Z,70.97
2022-08-05T01:27:24.195Z,71.06
2022-08-05T01:28:24.240Z,70.68
2022-08-05T01:29:24.186Z,70.97
2022-08-05T01:30:34.112Z,70.48
2022-08-05T01:31:24.167Z,70.29
2022-08-05T01:32:24.153Z,70.48
2022-08-05T01:33:25.301Z,70.68
2022-08-05T01:34:26.704Z,70.29
2022-08-05T01:35:50.837Z,69.90
2022-08-05T01:36:28.310Z,69.62
2022-08-05T01:37:24.982Z,69.62
2022-08-05T01:38:27.435Z,69.90
2022-08-05T01:39:45.884Z,70.10
2022-08-05T01:40:28.019Z,69.81
2022-08-05T01:41:25.657Z,70.00
2022-08-05T01:42:24.075Z,70.10
2022-08-05T01:43:24.274Z,69.90
2022-08-05T01:44:24.861Z,70.00
2022-08-05T01:45:24.054Z,69.74
2022-08-05T01:46:42.002Z,69.71
2022-08-05T01:47:24.259Z,70.10
2022-08-05T01:48:24.028Z,69.74
2022-08-05T01:49:24.962Z,70.00
2022-08-05T01:50:28.581Z,69.90
2022-08-05T01:51:24.009Z,69.94
2022-08-05T01:52:24.005Z,69.42
2022-08-05T01:53:58.126Z,69.42
2022-08-05T01:54:27.117Z,69.65
2022-08-05T01:55:24.328Z,70.04
2022-08-05T01:58:10.468Z,69.65
2022-08-05T01:58:12.869Z,69.52
2022-08-05T01:58:29.417Z,69.52
2022-08-05T01:59:23.951Z,69.81
2022-08-05T02:00:30.533Z,69.81
2022-08-05T02:01:24.749Z,69.62
2022-08-05T02:02:26.208Z,69.71
2022-08-05T02:03:29.196Z,70.32
2022-08-05T02:04:23.903Z,70.20
2022-08-05T02:05:24.049Z,69.42
2022-08-05T02:06:33.631Z,69.32
2022-08-05T02:07:24.162Z,70.20
2022-08-05T02:08:25.536Z,69.90
2022-08-05T02:09:23.871Z,70.10
2022-08-05T02:10:28.105Z,70.00
2022-08-05T02:11:24.110Z,69.81
2022-08-05T02:12:25.340Z,69.71
2022-08-05T02:13:23.840Z,69.81
2022-08-05T02:14:23.826Z,69.90
2022-08-05T02:15:24.122Z,69.90
2022-08-05T02:16:23.810Z,69.71
2022-08-05T02:18:27.457Z,69.71
2022-08-05T02:18:28.652Z,69.62
2022-08-05T02:19:23.791Z,69.52
2022-08-05T02:20:24.030Z,69.62
2022-08-05T02:21:23.769Z,69.90
2022-08-05T02:22:25.725Z,69.90
2022-08-05T02:23:23.753Z,69.62
2022-08-05T02:24:23.743Z,70.20
2022-08-05T02:25:23.942Z,70.48
2022-08-05T02:26:23.728Z,70.78
2022-08-05T02:27:30.123Z,70.58
2022-08-05T02:28:28.650Z,70.58
2022-08-05T02:29:26.009Z,70.58
2022-08-05T02:30:23.698Z,70.68
2022-08-05T02:31:23.811Z,70.87
2022-08-05T02:32:29.262Z,70.84
2022-08-05T02:33:24.442Z,70.48
2022-08-05T02:34:23.666Z,70.45
2022-08-05T02:35:28.321Z,71.12
2022-08-05T02:36:23.652Z,71.42
2022-08-05T02:37:23.931Z,71.42
2022-08-05T02:38:27.000Z,71.32
2022-08-05T02:39:23.647Z,71.12
2022-08-05T02:40:24.063Z,71.22
2022-08-05T02:41:23.616Z,71.12
2022-08-05T02:42:27.673Z,71.42
2022-08-05T02:43:23.699Z,71.32
2022-08-05T02:44:23.588Z,71.03
2022-08-05T02:45:23.973Z,71.42
2022-08-05T02:46:27.398Z,71.32
2022-08-05T02:47:23.849Z,71.32
2022-08-05T02:48:29.204Z,71.03
2022-08-05T02:49:23.552Z,71.32
2022-08-05T02:50:23.537Z,71.32
2022-08-05T02:51:28.255Z,71.32
2022-08-05T02:52:29.403Z,71.22
2022-08-05T02:53:23.520Z,71.42
2022-08-05T02:54:35.081Z,71.22
2022-08-05T02:55:53.700Z,71.42
2022-08-05T02:56:23.495Z,71.61
2022-08-05T02:58:11.079Z,71.70
2022-08-05T02:58:26.529Z,71.80
2022-08-05T02:59:27.072Z,72.00
2022-08-05T03:00:25.466Z,71.90
2022-08-05T03:01:23.497Z,72.00
2022-08-05T03:02:23.443Z,72.00
2022-08-05T03:03:23.766Z,71.90
2022-08-05T03:04:23.423Z,72.58
2022-08-05T03:06:54.727Z,72.09
2022-08-05T03:06:56.938Z,72.28
2022-08-05T03:07:48.492Z,72.09
2022-08-05T03:08:29.934Z,71.90
2022-08-05T03:09:36.281Z,71.90
2022-08-05T03:10:25.054Z,71.70
2022-08-05T03:11:55.382Z,72.09
2022-08-05T03:12:23.364Z,71.12
2022-08-05T03:13:27.611Z,70.94
2022-08-05T03:14:23.344Z,71.22
2022-08-05T03:15:24.134Z,71.22
2022-08-05T03:16:23.328Z,71.03
2022-08-05T03:17:23.661Z,71.22
2022-08-05T03:18:24.635Z,71.22
2022-08-05T03:19:33.853Z,72.00
2022-08-05T03:20:24.258Z,71.32
2022-08-05T03:21:23.297Z,71.03
2022-08-05T03:22:32.129Z,71.61
2022-08-05T03:23:24.151Z,71.70
2022-08-05T03:24:29.836Z,71.80
2022-08-05T03:26:03.429Z,71.51
2022-08-05T03:26:31.844Z,72.09
2022-08-05T03:27:23.336Z,72.00
2022-08-05T03:28:23.480Z,72.38
2022-08-05T03:29:23.223Z,71.86
2022-08-05T03:30:33.404Z,71.58
2022-08-05T03:31:55.665Z,71.77
2022-08-05T03:32:30.663Z,71.86
2022-08-05T03:33:23.442Z,71.67
2022-08-05T03:34:24.440Z,71.67
2022-08-05T03:35:23.173Z,71.67
2022-08-05T03:36:30.075Z,71.48
2022-08-05T03:37:23.451Z,71.70
2022-08-05T03:38:32.771Z,71.96
2022-08-05T03:39:27.157Z,71.80
2022-08-05T03:40:24.359Z,71.77
2022-08-05T03:41:23.668Z,71.96
2022-08-05T03:42:23.114Z,72.25
2022-08-05T03:44:09.870Z,71.86
2022-08-05T03:44:23.092Z,71.67
2022-08-05T03:45:23.592Z,71.38
2022-08-05T03:46:23.080Z,71.77
2022-08-05T03:47:23.277Z,71.77
2022-08-05T03:48:23.359Z,71.48
2022-08-05T03:49:24.200Z,71.67
2022-08-05T03:50:23.049Z,71.67
2022-08-05T03:52:38.779Z,72.44
2022-08-05T03:52:48.368Z,72.06
2022-08-05T03:55:51.934Z,71.58
2022-08-05T03:56:01.577Z,71.77
2022-08-05T03:56:04.724Z,71.77
2022-08-05T03:56:30.663Z,71.48
2022-08-05T03:57:41.161Z,71.00
2022-08-05T03:58:28.869Z,71.19
2022-08-05T03:59:22.967Z,71.19
2022-08-05T04:00:22.965Z,71.19
2022-08-05T04:01:22.998Z,71.19
2022-08-05T04:02:38.327Z,71.19
2022-08-05T04:03:28.620Z,71.19
2022-08-05T04:04:22.925Z,71.19
2022-08-05T04:05:22.986Z,71.00
2022-08-05T04:06:22.910Z,71.28
2022-08-05T04:07:24.900Z,71.09
2022-08-05T04:08:30.180Z,71.28
2022-08-05T04:09:26.621Z,71.38
2022-08-05T04:10:22.877Z,71.28
2022-08-05T04:11:22.867Z,71.38
2022-08-05T04:12:24.508Z,71.38
2022-08-05T04:13:23.150Z,71.09
2022-08-05T04:14:30.074Z,71.09
2022-08-05T04:15:24.444Z,71.19
2022-08-05T04:16:24.060Z,71.19
2022-08-05T04:17:22.998Z,71.09
2022-08-05T04:18:25.360Z,70.90
2022-08-05T04:19:23.390Z,70.90
2022-08-05T04:20:23.326Z,71.09
2022-08-05T04:22:08.589Z,71.58
2022-08-05T04:22:22.774Z,71.19
2022-08-05T04:23:57.376Z,70.90
2022-08-05T04:24:22.860Z,71.00
2022-08-05T04:25:24.210Z,70.42
2022-08-05T04:26:22.744Z,70.51
2022-08-05T04:27:42.138Z,70.61
2022-08-05T04:28:28.531Z,70.54
2022-08-05T04:29:22.716Z,70.45
2022-08-05T04:30:22.711Z,70.51
2022-08-05T04:31:22.703Z,70.70
2022-08-05T04:32:30.637Z,70.16
2022-08-05T04:34:18.181Z,69.64
2022-08-05T04:34:32.486Z,70.26
2022-08-05T04:35:22.668Z,70.61
2022-08-05T04:36:46.569Z,71.00
2022-08-05T04:38:00.567Z,70.74
2022-08-05T04:38:22.640Z,70.61
2022-08-05T04:39:22.674Z,70.90
2022-08-05T04:40:22.729Z,70.51
2022-08-05T04:41:22.620Z,70.51
2022-08-05T04:42:25.379Z,70.80
2022-08-05T04:43:22.606Z,70.51
2022-08-05T04:44:29.414Z,71.09
2022-08-05T04:45:47.912Z,70.90
2022-08-05T04:46:28.338Z,71.67
2022-08-05T04:47:22.750Z,71.38
2022-08-05T04:48:27.615Z,71.48
2022-08-05T04:49:24.739Z,70.61
2022-08-05T04:50:37.153Z,71.00
2022-08-05T04:51:23.128Z,71.58
2022-08-05T04:52:22.526Z,71.28
2022-08-05T04:53:22.521Z,71.19
2022-08-05T04:54:22.512Z,71.19
2022-08-05T04:56:14.428Z,71.09
2022-08-05T04:56:34.844Z,71.86
2022-08-05T04:57:22.882Z,71.86
2022-08-05T04:58:22.476Z,71.67
2022-08-05T04:59:24.315Z,71.48
2022-08-05T05:00:23.469Z,71.77
2022-08-05T05:01:33.568Z,71.67
2022-08-05T05:02:37.566Z,71.77
2022-08-05T05:03:22.736Z,71.48
2022-08-05T05:04:22.423Z,71.77
2022-08-05T05:05:28.216Z,71.58
2022-08-05T05:06:39.126Z,71.67
2022-08-05T05:07:23.954Z,71.86
2022-08-05T05:08:30.242Z,72.21
2022-08-05T05:09:22.481Z,72.02
2022-08-05T05:10:22.380Z,71.96
2022-08-05T05:11:22.360Z,72.21
2022-08-05T05:12:22.351Z,71.92
2022-08-05T05:13:22.351Z,71.64
2022-08-05T05:14:27.776Z,71.86
2022-08-05T05:15:59.533Z,71.92
2022-08-05T05:16:22.340Z,71.73
2022-08-05T05:17:24.526Z,72.06
2022-08-05T05:18:28.436Z,72.02
2022-08-05T05:19:26.531Z,71.92
2022-08-05T05:20:22.488Z,71.58
2022-08-05T05:21:22.279Z,71.67
2022-08-05T05:22:24.193Z,72.02
2022-08-05T05:23:22.263Z,71.92
2022-08-05T05:24:22.254Z,71.44
2022-08-05T05:25:22.348Z,72.31
2022-08-05T05:26:28.601Z,72.02
2022-08-05T05:27:22.378Z,72.41
2022-08-05T05:28:22.213Z,72.50
2022-08-05T05:29:22.227Z,72.31
2022-08-05T05:30:30.927Z,72.41
2022-08-05T05:31:22.198Z,71.64
2022-08-05T05:32:22.182Z,71.73
2022-08-05T05:33:23.492Z,71.54
2022-08-05T05:34:26.667Z,71.54
2022-08-05T05:35:22.205Z,72.06
2022-08-05T05:36:22.148Z,71.73
2022-08-05T05:37:22.410Z,71.44
2022-08-05T05:38:27.277Z,71.67
2022-08-05T05:39:22.176Z,71.67
2022-08-05T05:40:22.215Z,71.54
2022-08-05T05:41:22.109Z,72.02
2022-08-05T05:42:22.098Z,71.54
2022-08-05T05:43:54.645Z,71.92
2022-08-05T05:44:36.560Z,71.92
2022-08-05T05:45:22.426Z,72.02
2022-08-05T05:46:22.061Z,71.73
2022-08-05T05:47:22.369Z,72.60
2022-08-05T05:48:27.584Z,72.60
2022-08-05T05:49:22.413Z,71.64
2022-08-05T05:50:22.083Z,71.92
2022-08-05T05:51:22.029Z,71.92
2022-08-05T05:52:28.746Z,71.34
2022-08-05T05:53:22.894Z,72.02
2022-08-05T05:54:22.001Z,72.50
2022-08-05T05:55:22.184Z,72.41
2022-08-05T05:56:26.037Z,72.60
2022-08-05T05:57:22.061Z,72.89
2022-08-05T05:58:21.954Z,72.69
2022-08-05T05:59:21.949Z,72.69
2022-08-05T06:00:27.808Z,72.12
2022-08-05T06:01:23.336Z,72.41
2022-08-05T06:02:32.588Z,72.31
2022-08-05T06:03:40.079Z,72.21
2022-08-05T06:04:22.029Z,72.79
2022-08-05T06:05:22.103Z,72.50
2022-08-05T06:06:22.440Z,72.69
2022-08-05T06:07:22.505Z,72.02
2022-08-05T06:08:32.589Z,72.41
2022-08-05T06:09:35.340Z,72.50
2022-08-05T06:10:21.905Z,72.69
2022-08-05T06:11:21.842Z,72.41
2022-08-05T06:12:21.839Z,72.41
2022-08-05T06:13:21.827Z,72.12
2022-08-05T06:14:21.815Z,72.41
2022-08-05T06:15:24.277Z,72.31
2022-08-05T06:16:29.029Z,72.12
2022-08-05T06:17:24.671Z,72.41
2022-08-05T06:18:21.788Z,72.50
2022-08-05T06:19:26.181Z,72.69
2022-08-05T06:20:22.120Z,72.99
2022-08-05T06:21:21.760Z,72.50
2022-08-05T06:22:21.748Z,72.21
2022-08-05T06:23:21.742Z,72.89
2022-08-05T06:24:25.766Z,72.89
2022-08-05T06:25:58.964Z,72.60
2022-08-05T06:26:24.148Z,72.69
2022-08-05T06:28:12.552Z,72.99
2022-08-05T06:28:22.052Z,72.69
2022-08-05T06:29:43.135Z,73.08
2022-08-05T06:30:21.731Z,73.37
2022-08-05T06:31:22.488Z,73.08
2022-08-05T06:32:26.036Z,73.37
2022-08-05T06:34:02.972Z,73.24
2022-08-05T06:34:21.646Z,73.27
2022-08-05T06:36:03.963Z,72.99
2022-08-05T06:36:21.625Z,72.95
2022-08-05T06:37:55.818Z,73.14
2022-08-05T06:38:35.969Z,73.24
2022-08-05T06:39:21.695Z,73.43
2022-08-05T06:40:21.639Z,73.24
2022-08-05T06:41:21.577Z,73.14
2022-08-05T06:42:21.569Z,73.18
2022-08-05T06:43:58.190Z,73.08
2022-08-05T06:44:22.027Z,72.95
2022-08-05T06:45:44.673Z,73.27
2022-08-05T06:46:21.538Z,73.08
2022-08-05T06:48:11.472Z,73.27
2022-08-05T06:48:55.394Z,73.18
2022-08-05T06:49:21.550Z,73.37
2022-08-05T06:50:21.502Z,72.95
2022-08-05T06:51:23.844Z,74.05
2022-08-05T06:52:38.181Z,73.72
2022-08-05T06:53:27.937Z,73.72
2022-08-05T06:54:21.467Z,73.91
2022-08-05T06:55:21.455Z,74.30
2022-08-05T06:56:26.525Z,74.10
2022-08-05T06:58:03.751Z,74.01
2022-08-05T06:58:35.049Z,74.01
2022-08-05T06:59:21.418Z,74.20
2022-08-05T07:00:22.135Z,74.30
2022-08-05T07:01:21.481Z,74.49
2022-08-05T07:02:22.829Z,74.20
2022-08-05T07:03:21.384Z,74.01
2022-08-05T07:04:21.675Z,74.20
2022-08-05T07:05:23.453Z,74.68
2022-08-05T07:06:21.361Z,74.20
2022-08-05T07:07:35.283Z,74.10
2022-08-05T07:08:21.338Z,74.20
2022-08-05T07:09:21.327Z,74.30
2022-08-05T07:10:21.628Z,74.30
2022-08-05T07:11:21.983Z,73.62
2022-08-05T07:12:21.298Z,73.91
2022-08-05T07:13:37.200Z,73.91
2022-08-05T07:14:29.327Z,73.72
2022-08-05T07:15:34.495Z,73.91
2022-08-05T07:17:56.040Z,73.91
2022-08-05T07:18:00.754Z,73.72
2022-08-05T07:18:29.274Z,73.91
2022-08-05T07:19:44.221Z,73.91
2022-08-05T07:20:38.689Z,73.72
2022-08-05T07:21:25.766Z,73.62
2022-08-05T07:22:21.208Z,73.62
2022-08-05T07:23:26.372Z,73.62
2022-08-05T07:24:21.197Z,73.72
2022-08-05T07:25:22.695Z,74.01
2022-08-05T07:26:24.896Z,73.91
2022-08-05T07:27:21.557Z,74.10
2022-08-05T07:28:21.155Z,74.01
2022-08-05T07:29:21.145Z,73.91
2022-08-05T07:30:27.398Z,73.82
2022-08-05T07:31:40.870Z,73.43
2022-08-05T07:32:25.983Z,74.01
2022-08-05T07:33:21.113Z,73.91
2022-08-05T07:34:21.207Z,73.82
2022-08-05T07:36:04.782Z,73.82
2022-08-05T07:36:21.872Z,73.72
2022-08-05T07:37:21.074Z,73.72
2022-08-05T07:38:32.467Z,73.91
2022-08-05T07:39:24.718Z,74.30
2022-08-05T07:40:32.459Z,73.91
2022-08-05T07:42:14.526Z,74.10
2022-08-05T07:42:33.446Z,73.82
2022-08-05T07:43:21.272Z,74.58
2022-08-05T07:44:21.014Z,74.30
2022-08-05T07:45:56.616Z,74.20
2022-08-05T07:46:25.413Z,74.58
2022-08-05T07:47:21.055Z,74.97
2022-08-05T07:49:01.864Z,75.36
2022-08-05T07:49:20.972Z,75.07
2022-08-05T07:50:24.962Z,75.07
2022-08-05T07:51:23.839Z,75.16
2022-08-05T07:52:20.938Z,75.16
2022-08-05T07:53:20.932Z,75.07
2022-08-05T07:54:20.923Z,74.68
2022-08-05T07:55:44.208Z,74.88
2022-08-05T07:57:00.516Z,74.88
2022-08-05T07:57:52.275Z,75.16
2022-08-05T07:58:54.680Z,74.78
2022-08-05T07:59:21.901Z,74.68
2022-08-05T08:00:20.888Z,74.68
2022-08-05T08:01:22.182Z,74.88
2022-08-05T08:02:20.846Z,74.68
2022-08-05T08:03:21.611Z,74.88
2022-08-05T08:04:34.288Z,75.45
2022-08-05T08:05:20.819Z,75.07
2022-08-05T08:06:21.359Z,74.68
2022-08-05T08:07:22.898Z,74.97
2022-08-05T08:08:20.790Z,75.07
2022-08-05T08:09:20.783Z,74.88
2022-08-05T08:10:20.901Z,75.07
2022-08-05T08:11:27.795Z,75.16
2022-08-05T08:12:33.349Z,74.88
2022-08-05T08:13:22.126Z,75.45
2022-08-05T08:14:20.752Z,75.36
2022-08-05T08:15:37.255Z,75.36
2022-08-05T08:16:34.948Z,75.55
2022-08-05T08:17:21.450Z,74.88
2022-08-05T08:18:21.271Z,74.88
2022-08-05T08:20:22.989Z,75.16
2022-08-05T08:20:43.664Z,75.36
2022-08-05T08:21:20.669Z,74.97
2022-08-05T08:22:21.162Z,75.55
2022-08-05T08:24:03.403Z,75.16
2022-08-05T08:24:20.640Z,75.55
2022-08-05T08:25:27.109Z,74.88
2022-08-05T08:26:26.954Z,75.45
2022-08-05T08:27:20.610Z,75.45
2022-08-05T08:28:36.697Z,75.45
2022-08-05T08:30:03.268Z,75.55
2022-08-05T08:30:32.267Z,75.26
2022-08-05T08:31:20.580Z,75.55
2022-08-05T08:32:27.736Z,75.26
2022-08-05T08:33:20.558Z,74.88
2022-08-05T08:34:30.507Z,74.97
2022-08-05T08:35:20.540Z,75.16
2022-08-05T08:36:38.385Z,75.26
2022-08-05T08:37:20.530Z,75.65
2022-08-05T08:38:35.590Z,75.07
2022-08-05T08:39:20.535Z,74.88
2022-08-05T08:40:20.591Z,75.74
2022-08-05T08:41:20.483Z,75.16
2022-08-05T08:42:33.981Z,75.74
2022-08-05T08:45:16.212Z,75.74
2022-08-05T08:45:18.771Z,75.07
2022-08-05T08:45:27.182Z,75.16
2022-08-05T08:46:20.438Z,75.74
2022-08-05T08:47:47.307Z,75.65
2022-08-05T08:48:42.895Z,76.13
2022-08-05T08:50:22.534Z,76.32
2022-08-05T08:50:31.766Z,76.28
2022-08-05T08:52:01.718Z,76.48
2022-08-05T08:52:20.380Z,76.48
2022-08-05T08:53:20.388Z,76.48
2022-08-05T08:54:20.364Z,76.67
2022-08-05T08:55:32.140Z,76.96
2022-08-05T08:56:20.794Z,76.86
2022-08-05T08:57:20.337Z,76.96
2022-08-05T08:58:20.327Z,76.96
2022-08-05T08:59:20.949Z,77.15
2022-08-05T09:00:20.345Z,77.53
2022-08-05T09:01:20.378Z,77.06
2022-08-05T09:02:20.346Z,77.34
2022-08-05T09:03:20.954Z,78.02
2022-08-05T09:04:20.274Z,77.92
2022-08-05T09:05:38.719Z,77.83
2022-08-05T09:06:21.130Z,77.53
2022-08-05T09:07:29.150Z,78.50
2022-08-05T09:08:20.229Z,78.21
2022-08-05T09:09:20.223Z,78.46
2022-08-05T09:10:20.214Z,77.88
2022-08-05T09:11:51.249Z,78.17
2022-08-05T09:12:27.274Z,78.17
2022-08-05T09:13:20.185Z,78.17
2022-08-05T09:14:58.532Z,77.69
2022-08-05T09:15:20.356Z,77.69
2022-08-05T09:16:20.152Z,77.50
2022-08-05T09:17:42.606Z,77.88
2022-08-05T09:18:20.134Z,77.59
2022-08-05T09:19:20.142Z,77.73
2022-08-05T09:20:36.171Z,77.98
2022-08-05T09:21:20.844Z,77.63
2022-08-05T09:22:31.323Z,78.17
2022-08-05T09:23:21.456Z,78.17
2022-08-05T09:24:20.082Z,78.27
2022-08-05T09:25:24.050Z,78.27
2022-08-05T09:26:20.706Z,78.46
2022-08-05T09:28:03.915Z,78.17
2022-08-05T09:28:21.052Z,78.11
2022-08-05T09:29:20.028Z,78.65
2022-08-05T09:30:23.451Z,78.94
2022-08-05T09:31:43.427Z,78.65
2022-08-05T09:32:45.964Z,79.03
2022-08-05T09:33:19.996Z,79.13
2022-08-05T09:34:19.987Z,79.13
2022-08-05T09:35:26.901Z,79.33
2022-08-05T09:36:19.971Z,78.94
2022-08-05T09:38:17.266Z,79.13
2022-08-05T09:38:27.505Z,79.43
2022-08-05T09:39:21.993Z,79.43
2022-08-05T09:40:19.967Z,79.33
2022-08-05T09:41:19.911Z,79.03
2022-08-05T09:42:24.558Z,79.33
2022-08-05T09:43:19.898Z,79.13
2022-08-05T09:44:19.892Z,78.85
2022-08-05T09:46:06.729Z,79.13
2022-08-05T09:46:19.877Z,79.13
2022-08-05T09:47:20.674Z,79.52
2022-08-05T09:48:19.851Z,78.65
2022-08-05T09:49:20.027Z,78.75
2022-08-05T09:50:38.843Z,78.94
2022-08-05T09:51:19.829Z,79.52
2022-08-05T09:52:19.971Z,78.56
2022-08-05T09:53:26.092Z,79.71
2022-08-05T09:54:21.364Z,79.81
2022-08-05T09:55:56.818Z,79.43
2022-08-05T09:56:19.775Z,79.43
2022-08-05T09:57:20.681Z,80.29
2022-08-05T09:58:19.755Z,80.10
2022-08-05T09:59:19.747Z,80.10
2022-08-05T10:00:19.731Z,81.25
2022-08-05T10:01:31.545Z,81.16
2022-08-05T10:02:20.510Z,81.25
2022-08-05T10:03:20.300Z,81.83
2022-08-05T10:04:19.694Z,81.54
2022-08-05T10:05:19.685Z,82.37
2022-08-05T10:06:19.678Z,82.02
2022-08-05T10:08:10.366Z,82.41
2022-08-05T10:08:36.333Z,82.89
2022-08-05T10:09:27.443Z,82.98
2022-08-05T10:10:28.174Z,82.50
2022-08-05T10:11:19.634Z,81.88
2022-08-05T10:12:33.624Z,81.98
2022-08-05T10:13:19.607Z,81.70
2022-08-05T10:14:19.599Z,82.65
2022-08-05T10:15:20.007Z,81.70
2022-08-05T10:16:19.630Z,82.17
2022-08-05T10:17:38.029Z,82.21
2022-08-05T10:18:19.562Z,81.88
2022-08-05T10:19:23.627Z,82.12
2022-08-05T10:20:20.002Z,82.08
2022-08-05T10:21:19.886Z,81.98
2022-08-05T10:22:30.322Z,82.50
2022-08-05T10:23:34.485Z,82.21
2022-08-05T10:24:19.500Z,82.79
2022-08-05T10:25:19.634Z,82.21
2022-08-05T10:26:19.481Z,82.02
2022-08-05T10:27:19.616Z,82.79
2022-08-05T10:28:30.356Z,82.02
2022-08-05T10:29:23.522Z,82.02
2022-08-05T10:31:20.605Z,82.02
2022-08-05T10:32:47.699Z,83.08
2022-08-05T10:32:54.992Z,82.79
2022-08-05T10:33:19.424Z,84.05
2022-08-05T10:34:19.405Z,84.05
2022-08-05T10:35:19.406Z,84.05
2022-08-05T10:36:23.657Z,84.62
2022-08-05T10:37:19.482Z,85.10
2022-08-05T10:38:19.366Z,85.00
2022-08-05T10:39:24.455Z,85.20
2022-08-05T10:40:19.520Z,85.49
2022-08-05T10:41:23.665Z,85.20
2022-08-05T10:42:32.601Z,85.10
2022-08-05T10:43:19.327Z,85.00
2022-08-05T10:44:19.311Z,85.00
2022-08-05T10:45:24.070Z,84.33
2022-08-05T10:46:19.295Z,83.95
2022-08-05T10:47:26.114Z,83.75
2022-08-05T10:48:29.779Z,83.85
2022-08-05T10:49:27.613Z,83.75
2022-08-05T10:50:32.863Z,83.56
2022-08-05T10:51:21.845Z,83.18
2022-08-05T10:52:19.683Z,82.89
2022-08-05T10:53:19.226Z,82.31
2022-08-05T10:54:28.126Z,82.41
2022-08-05T10:55:19.214Z,81.73
2022-08-05T10:56:25.245Z,82.21
2022-08-05T10:57:19.272Z,82.41
2022-08-05T10:58:19.182Z,82.50
2022-08-05T11:00:03.523Z,82.54
2022-08-05T11:00:20.421Z,81.68
2022-08-05T11:01:28.323Z,81.39
2022-08-05T11:02:34.779Z,81.29
2022-08-05T11:03:25.599Z,81.10
2022-08-05T11:04:19.120Z,80.43
2022-08-05T11:05:19.118Z,80.23
2022-08-05T11:06:19.103Z,79.75
2022-08-05T11:07:19.149Z,79.46
2022-08-05T11:08:36.732Z,79.66
2022-08-05T11:09:24.514Z,79.56
2022-08-05T11:10:19.070Z,79.41
2022-08-05T11:11:19.058Z,79.11
2022-08-05T11:12:19.148Z,79.21
2022-08-05T11:13:19.042Z,79.31
2022-08-05T11:14:19.033Z,79.31
2022-08-05T11:15:19.962Z,79.31
2022-08-05T11:16:19.014Z,79.41
2022-08-05T11:17:20.604Z,78.92
2022-08-05T11:18:18.997Z,77.96
2022-08-05T11:20:10.166Z,78.44
2022-08-05T11:20:19.059Z,78.06
2022-08-05T11:21:18.973Z,78.34
2022-08-05T11:22:19.061Z,78.34
2022-08-05T11:23:18.951Z,77.90
2022-08-05T11:24:30.186Z,77.71
2022-08-05T11:26:04.282Z,77.51
2022-08-05T11:26:28.972Z,77.33
2022-08-05T11:27:19.118Z,77.33
2022-08-05T11:28:18.903Z,77.13
2022-08-05T11:29:18.897Z,77.33
2022-08-05T11:30:18.888Z,77.33
2022-08-05T11:31:54.013Z,77.61
2022-08-05T11:32:18.990Z,77.61
2022-08-05T11:33:21.106Z,77.13
2022-08-05T11:34:22.729Z,77.23
2022-08-05T11:35:18.846Z,76.65
2022-08-05T11:36:34.617Z,76.68
2022-08-05T11:38:28.356Z,76.50
2022-08-05T11:38:29.411Z,76.59
2022-08-05T11:39:18.832Z,76.40
2022-08-05T11:40:18.805Z,76.53
2022-08-05T11:41:54.729Z,76.05
2022-08-05T11:42:18.878Z,75.18
2022-08-05T11:43:18.779Z,75.09
2022-08-05T11:44:21.793Z,74.44
2022-08-05T11:45:23.279Z,73.19
2022-08-05T11:46:32.350Z,73.19
2022-08-05T11:47:21.943Z,73.13
2022-08-05T11:48:19.080Z,72.84
2022-08-05T11:49:18.721Z,72.55
2022-08-05T11:50:18.717Z,72.55
2022-08-05T11:51:43.705Z,72.74
2022-08-05T11:52:18.695Z,71.72
2022-08-05T11:53:18.688Z,71.33
2022-08-05T11:54:18.734Z,70.65
2022-08-05T11:55:18.678Z,70.65
2022-08-05T11:56:18.667Z,70.65
2022-08-05T11:57:25.425Z,70.98
2022-08-05T11:58:18.654Z,70.30
2022-08-05T11:59:21.163Z,70.01
2022-08-05T12:00:18.688Z,69.14
2022-08-05T12:01:19.009Z,68.95
2022-08-05T12:02:24.295Z,69.14
2022-08-05T12:03:29.391Z,68.88
2022-08-05T12:04:18.604Z,68.27
2022-08-05T12:05:18.797Z,69.08
2022-08-05T12:06:18.595Z,69.08
2022-08-05T12:07:18.588Z,69.17
2022-08-05T12:08:18.680Z,68.30
2022-08-05T12:09:20.129Z,67.91
2022-08-05T12:10:18.563Z,68.49
2022-08-05T12:11:20.274Z,68.24
2022-08-05T12:12:18.551Z,67.85
2022-08-05T12:13:47.857Z,67.46
2022-08-05T12:14:18.546Z,67.27
2022-08-05T12:15:18.537Z,67.37
2022-08-05T12:16:19.111Z,67.21
2022-08-05T12:18:03.311Z,66.50
2022-08-05T12:18:18.507Z,66.30
2022-08-05T12:20:26.159Z,66.40
2022-08-05T12:20:28.904Z,66.60
2022-08-05T12:21:18.494Z,66.43
2022-08-05T12:22:20.138Z,66.53
2022-08-05T12:23:18.476Z,65.95
2022-08-05T12:24:18.473Z,66.43
2022-08-05T12:25:18.464Z,66.34
2022-08-05T12:26:18.454Z,66.34
2022-08-05T12:27:21.522Z,66.82
2022-08-05T12:28:18.445Z,65.95
2022-08-05T12:29:23.111Z,65.89
2022-08-05T12:30:18.437Z,65.50
2022-08-05T12:31:28.030Z,65.47
2022-08-05T12:32:18.430Z,65.50
2022-08-05T12:33:27.344Z,65.11
2022-08-05T12:34:20.511Z,65.50
2022-08-05T12:35:21.871Z,65.11
2022-08-05T12:36:18.421Z,64.72
2022-08-05T12:37:21.761Z,64.62
2022-08-05T12:38:18.780Z,64.82
2022-08-05T12:39:18.405Z,65.40
2022-08-05T12:40:26.326Z,65.01
2022-08-05T12:41:18.363Z,64.65
2022-08-05T12:42:18.357Z,64.75
2022-08-05T12:43:21.137Z,64.27
2022-08-05T12:44:32.776Z,65.05
2022-08-05T12:45:18.335Z,65.24
2022-08-05T12:46:18.333Z,64.75
2022-08-05T12:47:18.336Z,64.56
2022-08-05T12:48:27.651Z,64.56
2022-08-05T12:49:19.078Z,64.59
2022-08-05T12:50:19.768Z,63.43
2022-08-05T12:51:21.742Z,63.59
2022-08-05T12:52:25.558Z,63.13